sensor_id;sensor_type;location;lat;lon;timestamp;temperature;humidity
19974;DHT22;10148;47.694;9.442;2022-12-24T00:00:20;12.10;99.90
19974;DHT22;10148;47.694;9.442;2022-12-24T00:02:46;12.00;99.90
19974;DHT22;10148;47.694;9.442;2022-12-24T00:05:12;12.00;99.90
19974;DHT22;10148;47.694;9.442;2022-12-24T00:07:37;12.00;99.90
19974;DHT22;10148;47.694;9.442;2022-12-24T00:10:04;12.00;99.90
19974;DHT22;10148;47.694;9.442;2022-12-24T00:12:30;12.00;99.90
19974;DHT22;10148;47.694;9.442;2022-12-24T00:14:55;12.00;99.90
19974;DHT22;10148;47.694;9.442;2022-12-24T00:17:21;11.90;99.90
19974;DHT22;10148;47.694;9.442;2022-12-24T00:19:46;11.90;99.90
19974;DHT22;10148;47.694;9.442;2022-12-24T00:22:12;11.90;99.90
19974;DHT22;10148;47.694;9.442;2022-12-24T00:24:37;11.90;99.90
19974;DHT22;10148;47.694;9.442;2022-12-24T00:27:03;11.80;99.90
19974;DHT22;10148;47.694;9.442;2022-12-24T00:29:30;11.80;99.90
19974;DHT22;10148;47.694;9.442;2022-12-24T00:31:56;11.80;99.90
19974;DHT22;10148;47.694;9.442;2022-12-24T00:34:22;11.80;99.90
19974;DHT22;10148;47.694;9.442;2022-12-24T00:36:48;11.80;99.90
19974;DHT22;10148;47.694;9.442;2022-12-24T00:39:13;11.80;99.90
19974;DHT22;10148;47.694;9.442;2022-12-24T00:41:39;11.80;99.90
19974;DHT22;10148;47.694;9.442;2022-12-24T00:44:05;11.70;99.90
19974;DHT22;10148;47.694;9.442;2022-12-24T00:46:34;11.70;99.90
19974;DHT22;10148;47.694;9.442;2022-12-24T00:49:00;11.70;99.90
19974;DHT22;10148;47.694;9.442;2022-12-24T00:51:26;11.60;99.90
19974;DHT22;10148;47.694;9.442;2022-12-24T00:53:52;11.60;99.90
19974;DHT22;10148;47.694;9.442;2022-12-24T00:56:18;11.60;99.90
19974;DHT22;10148;47.694;9.442;2022-12-24T00:58:44;11.60;99.90
19974;DHT22;10148;47.694;9.442;2022-12-24T01:01:10;11.60;99.90
19974;DHT22;10148;47.694;9.442;2022-12-24T01:03:35;11.60;99.90
19974;DHT22;10148;47.694;9.442;2022-12-24T01:06:04;11.60;99.90
19974;DHT22;10148;47.694;9.442;2022-12-24T01:08:30;11.60;99.90
19974;DHT22;10148;47.694;9.442;2022-12-24T01:10:56;11.50;99.90
19974;DHT22;10148;47.694;9.442;2022-12-24T01:13:22;11.60;99.90
19974;DHT22;10148;47.694;9.442;2022-12-24T01:15:48;11.50;99.90
19974;DHT22;10148;47.694;9.442;2022-12-24T01:18:14;11.50;99.90
19974;DHT22;10148;47.694;9.442;2022-12-24T01:20:39;11.50;99.90
19974;DHT22;10148;47.694;9.442;2022-12-24T01:23:05;11.50;99.90
19974;DHT22;10148;47.694;9.442;2022-12-24T01:25:30;11.50;99.90
19974;DHT22;10148;47.694;9.442;2022-12-24T01:27:56;11.50;99.90
19974;DHT22;10148;47.694;9.442;2022-12-24T01:30:22;11.50;99.90
19974;DHT22;10148;47.694;9.442;2022-12-24T01:32:47;11.50;99.90
19974;DHT22;10148;47.694;9.442;2022-12-24T01:35:13;11.50;99.90
19974;DHT22;10148;47.694;9.442;2022-12-24T01:37:39;11.60;99.90
19974;DHT22;10148;47.694;9.442;2022-12-24T01:40:06;11.60;99.90
19974;DHT22;10148;47.694;9.442;2022-12-24T01:42:52;11.60;99.90
19974;DHT22;10148;47.694;9.442;2022-12-24T01:48:02;11.60;99.90
19974;DHT22;10148;47.694;9.442;2022-12-24T01:50:28;11.60;99.90
19974;DHT22;10148;47.694;9.442;2022-12-24T01:52:53;11.60;99.90
19974;DHT22;10148;47.694;9.442;2022-12-24T01:55:19;11.60;99.90
19974;DHT22;10148;47.694;9.442;2022-12-24T01:57:49;11.60;99.90
19974;DHT22;10148;47.694;9.442;2022-12-24T02:00:16;11.60;99.90
19974;DHT22;10148;47.694;9.442;2022-12-24T02:02:46;11.50;99.90
19974;DHT22;10148;47.694;9.442;2022-12-24T02:05:28;11.50;99.90
19974;DHT22;10148;47.694;9.442;2022-12-24T02:07:56;11.50;99.90
19974;DHT22;10148;47.694;9.442;2022-12-24T02:10:22;11.50;99.90
19974;DHT22;10148;47.694;9.442;2022-12-24T02:12:48;11.50;99.90
19974;DHT22;10148;47.694;9.442;2022-12-24T02:15:16;11.50;99.90
19974;DHT22;10148;47.694;9.442;2022-12-24T02:26:01;11.40;99.90
19974;DHT22;10148;47.694;9.442;2022-12-24T02:31:02;11.40;99.90
19974;DHT22;10148;47.694;9.442;2022-12-24T02:33:39;11.50;99.90
19974;DHT22;10148;47.694;9.442;2022-12-24T02:36:17;11.50;99.90
19974;DHT22;10148;47.694;9.442;2022-12-24T02:38:57;11.40;99.90
19974;DHT22;10148;47.694;9.442;2022-12-24T02:41:29;11.40;99.90
19974;DHT22;10148;47.694;9.442;2022-12-24T02:44:16;11.50;99.90
19974;DHT22;10148;47.694;9.442;2022-12-24T02:46:44;11.40;99.90
19974;DHT22;10148;47.694;9.442;2022-12-24T02:49:11;11.40;99.90
19974;DHT22;10148;47.694;9.442;2022-12-24T02:51:38;11.40;99.90
19974;DHT22;10148;47.694;9.442;2022-12-24T02:54:03;11.50;99.90
19974;DHT22;10148;47.694;9.442;2022-12-24T02:56:55;11.40;99.90
19974;DHT22;10148;47.694;9.442;2022-12-24T03:04:54;11.50;99.90
19974;DHT22;10148;47.694;9.442;2022-12-24T03:07:27;11.40;99.90
19974;DHT22;10148;47.694;9.442;2022-12-24T03:10:19;11.40;99.90
19974;DHT22;10148;47.694;9.442;2022-12-24T03:12:51;11.40;99.90
19974;DHT22;10148;47.694;9.442;2022-12-24T03:15:20;11.40;99.90
19974;DHT22;10148;47.694;9.442;2022-12-24T03:17:49;11.40;99.90
19974;DHT22;10148;47.694;9.442;2022-12-24T03:20:19;11.40;99.90
19974;DHT22;10148;47.694;9.442;2022-12-24T03:22:46;11.30;99.90
19974;DHT22;10148;47.694;9.442;2022-12-24T03:25:12;11.30;99.90
19974;DHT22;10148;47.694;9.442;2022-12-24T03:27:38;11.30;99.90
19974;DHT22;10148;47.694;9.442;2022-12-24T03:30:09;11.30;99.90
19974;DHT22;10148;47.694;9.442;2022-12-24T03:32:35;11.20;99.90
19974;DHT22;10148;47.694;9.442;2022-12-24T03:35:00;11.20;99.90
19974;DHT22;10148;47.694;9.442;2022-12-24T03:37:26;11.20;99.90
19974;DHT22;10148;47.694;9.442;2022-12-24T03:39:52;11.20;99.90
19974;DHT22;10148;47.694;9.442;2022-12-24T03:42:17;11.20;99.90
19974;DHT22;10148;47.694;9.442;2022-12-24T03:44:43;11.20;99.90
19974;DHT22;10148;47.694;9.442;2022-12-24T03:47:08;11.20;99.90
19974;DHT22;10148;47.694;9.442;2022-12-24T03:49:34;11.20;99.90
19974;DHT22;10148;47.694;9.442;2022-12-24T03:51:59;11.20;99.90
19974;DHT22;10148;47.694;9.442;2022-12-24T03:54:25;11.20;99.90
19974;DHT22;10148;47.694;9.442;2022-12-24T03:56:50;11.20;99.90
19974;DHT22;10148;47.694;9.442;2022-12-24T03:59:16;11.20;99.90
19974;DHT22;10148;47.694;9.442;2022-12-24T04:01:41;11.30;99.90
19974;DHT22;10148;47.694;9.442;2022-12-24T04:04:07;11.30;99.90
19974;DHT22;10148;47.694;9.442;2022-12-24T04:06:32;11.30;99.90
19974;DHT22;10148;47.694;9.442;2022-12-24T04:08:58;11.40;99.90
19974;DHT22;10148;47.694;9.442;2022-12-24T04:11:26;11.40;99.90
19974;DHT22;10148;47.694;9.442;2022-12-24T04:13:52;11.40;99.90
19974;DHT22;10148;47.694;9.442;2022-12-24T04:16:17;11.30;99.90
19974;DHT22;10148;47.694;9.442;2022-12-24T04:18:43;11.30;99.90
19974;DHT22;10148;47.694;9.442;2022-12-24T04:21:10;11.30;99.90
19974;DHT22;10148;47.694;9.442;2022-12-24T04:23:37;11.40;99.90
19974;DHT22;10148;47.694;9.442;2022-12-24T04:26:04;11.40;99.90
19974;DHT22;10148;47.694;9.442;2022-12-24T04:28:31;11.40;99.90
19974;DHT22;10148;47.694;9.442;2022-12-24T04:31:06;11.40;99.90
19974;DHT22;10148;47.694;9.442;2022-12-24T04:33:32;11.40;99.90
19974;DHT22;10148;47.694;9.442;2022-12-24T04:35:58;11.40;99.90
19974;DHT22;10148;47.694;9.442;2022-12-24T04:38:25;11.40;99.90
19974;DHT22;10148;47.694;9.442;2022-12-24T04:40:58;11.40;99.90
19974;DHT22;10148;47.694;9.442;2022-12-24T04:43:24;11.30;99.90
19974;DHT22;10148;47.694;9.442;2022-12-24T04:45:50;11.30;99.90
19974;DHT22;10148;47.694;9.442;2022-12-24T04:48:15;11.30;99.90
19974;DHT22;10148;47.694;9.442;2022-12-24T04:50:41;11.20;99.90
19974;DHT22;10148;47.694;9.442;2022-12-24T04:53:06;11.20;99.90
19974;DHT22;10148;47.694;9.442;2022-12-24T04:55:32;11.20;99.90
19974;DHT22;10148;47.694;9.442;2022-12-24T04:57:57;11.20;99.90
19974;DHT22;10148;47.694;9.442;2022-12-24T05:00:23;11.10;99.90
19974;DHT22;10148;47.694;9.442;2022-12-24T05:02:48;11.00;99.90
19974;DHT22;10148;47.694;9.442;2022-12-24T05:05:14;11.00;99.90
19974;DHT22;10148;47.694;9.442;2022-12-24T05:07:39;11.00;99.90
19974;DHT22;10148;47.694;9.442;2022-12-24T05:10:06;11.00;99.90
19974;DHT22;10148;47.694;9.442;2022-12-24T05:12:31;11.00;99.90
19974;DHT22;10148;47.694;9.442;2022-12-24T05:14:57;10.90;99.90
19974;DHT22;10148;47.694;9.442;2022-12-24T05:17:22;10.90;99.90
19974;DHT22;10148;47.694;9.442;2022-12-24T05:19:48;10.80;99.90
19974;DHT22;10148;47.694;9.442;2022-12-24T05:22:13;10.80;99.90
19974;DHT22;10148;47.694;9.442;2022-12-24T05:24:58;10.80;99.90
19974;DHT22;10148;47.694;9.442;2022-12-24T05:27:42;10.70;99.90
19974;DHT22;10148;47.694;9.442;2022-12-24T05:30:08;10.70;99.90
19974;DHT22;10148;47.694;9.442;2022-12-24T05:32:33;10.80;99.90
19974;DHT22;10148;47.694;9.442;2022-12-24T05:34:59;10.70;99.90
19974;DHT22;10148;47.694;9.442;2022-12-24T05:37:24;10.70;99.90
19974;DHT22;10148;47.694;9.442;2022-12-24T05:39:50;10.70;99.90
19974;DHT22;10148;47.694;9.442;2022-12-24T05:42:15;10.70;99.90
19974;DHT22;10148;47.694;9.442;2022-12-24T05:44:41;10.60;99.90
19974;DHT22;10148;47.694;9.442;2022-12-24T05:47:06;10.60;99.90
19974;DHT22;10148;47.694;9.442;2022-12-24T05:49:32;10.50;99.90
19974;DHT22;10148;47.694;9.442;2022-12-24T05:51:57;10.50;99.90
19974;DHT22;10148;47.694;9.442;2022-12-24T05:54:23;10.50;99.90
19974;DHT22;10148;47.694;9.442;2022-12-24T05:56:48;10.40;99.90
19974;DHT22;10148;47.694;9.442;2022-12-24T05:59:14;10.40;99.90
19974;DHT22;10148;47.694;9.442;2022-12-24T06:01:39;10.30;99.90
19974;DHT22;10148;47.694;9.442;2022-12-24T06:04:09;10.30;99.90
19974;DHT22;10148;47.694;9.442;2022-12-24T06:06:35;10.20;99.90
19974;DHT22;10148;47.694;9.442;2022-12-24T06:09:00;10.20;99.90
19974;DHT22;10148;47.694;9.442;2022-12-24T06:11:26;10.10;99.90
19974;DHT22;10148;47.694;9.442;2022-12-24T06:13:52;10.10;99.90
19974;DHT22;10148;47.694;9.442;2022-12-24T06:16:19;10.10;99.90
19974;DHT22;10148;47.694;9.442;2022-12-24T06:18:45;10.10;99.90
19974;DHT22;10148;47.694;9.442;2022-12-24T06:21:11;10.00;99.90
19974;DHT22;10148;47.694;9.442;2022-12-24T06:23:39;9.90;99.90
19974;DHT22;10148;47.694;9.442;2022-12-24T06:26:06;9.90;99.90
19974;DHT22;10148;47.694;9.442;2022-12-24T06:28:34;9.80;99.90
19974;DHT22;10148;47.694;9.442;2022-12-24T06:31:00;9.80;99.90
19974;DHT22;10148;47.694;9.442;2022-12-24T06:33:27;9.70;99.90
19974;DHT22;10148;47.694;9.442;2022-12-24T06:35:52;9.70;99.90
19974;DHT22;10148;47.694;9.442;2022-12-24T06:38:18;9.70;99.90
19974;DHT22;10148;47.694;9.442;2022-12-24T06:40:44;9.60;99.90
19974;DHT22;10148;47.694;9.442;2022-12-24T06:43:11;9.60;99.90
19974;DHT22;10148;47.694;9.442;2022-12-24T06:45:37;9.50;99.90
19974;DHT22;10148;47.694;9.442;2022-12-24T06:48:02;9.40;99.90
19974;DHT22;10148;47.694;9.442;2022-12-24T06:50:28;9.40;99.90
19974;DHT22;10148;47.694;9.442;2022-12-24T06:52:54;9.30;99.90
19974;DHT22;10148;47.694;9.442;2022-12-24T06:55:19;9.30;99.90
19974;DHT22;10148;47.694;9.442;2022-12-24T06:57:45;9.20;99.90
19974;DHT22;10148;47.694;9.442;2022-12-24T07:00:11;9.10;99.90
19974;DHT22;10148;47.694;9.442;2022-12-24T07:02:41;9.10;99.90
19974;DHT22;10148;47.694;9.442;2022-12-24T07:05:11;9.00;99.90
19974;DHT22;10148;47.694;9.442;2022-12-24T07:07:38;9.00;99.90
19974;DHT22;10148;47.694;9.442;2022-12-24T07:10:04;9.00;99.90
19974;DHT22;10148;47.694;9.442;2022-12-24T07:12:31;8.90;99.90
19974;DHT22;10148;47.694;9.442;2022-12-24T07:14:56;8.90;99.90
19974;DHT22;10148;47.694;9.442;2022-12-24T07:17:22;8.90;99.90
19974;DHT22;10148;47.694;9.442;2022-12-24T07:19:47;8.90;99.90
19974;DHT22;10148;47.694;9.442;2022-12-24T07:22:13;8.90;99.90
19974;DHT22;10148;47.694;9.442;2022-12-24T07:24:38;8.80;99.90
19974;DHT22;10148;47.694;9.442;2022-12-24T07:27:04;8.80;99.90
19974;DHT22;10148;47.694;9.442;2022-12-24T07:29:29;8.80;99.90
19974;DHT22;10148;47.694;9.442;2022-12-24T07:31:55;8.80;99.90
19974;DHT22;10148;47.694;9.442;2022-12-24T07:34:21;8.70;99.90
19974;DHT22;10148;47.694;9.442;2022-12-24T07:36:46;8.70;99.90
19974;DHT22;10148;47.694;9.442;2022-12-24T07:39:12;8.70;99.90
19974;DHT22;10148;47.694;9.442;2022-12-24T07:41:37;8.70;99.90
19974;DHT22;10148;47.694;9.442;2022-12-24T07:44:03;8.60;99.90
19974;DHT22;10148;47.694;9.442;2022-12-24T07:46:29;8.60;99.90
19974;DHT22;10148;47.694;9.442;2022-12-24T07:48:54;8.60;99.90
19974;DHT22;10148;47.694;9.442;2022-12-24T07:51:20;8.60;99.90
19974;DHT22;10148;47.694;9.442;2022-12-24T07:53:45;8.60;99.90
19974;DHT22;10148;47.694;9.442;2022-12-24T07:56:15;8.70;99.90
19974;DHT22;10148;47.694;9.442;2022-12-24T07:58:41;8.70;99.90
19974;DHT22;10148;47.694;9.442;2022-12-24T08:01:07;8.70;99.90
19974;DHT22;10148;47.694;9.442;2022-12-24T08:03:32;8.70;99.90
19974;DHT22;10148;47.694;9.442;2022-12-24T08:05:58;8.70;99.90
19974;DHT22;10148;47.694;9.442;2022-12-24T08:08:24;8.70;99.90
19974;DHT22;10148;47.694;9.442;2022-12-24T08:10:50;8.70;99.90
19974;DHT22;10148;47.694;9.442;2022-12-24T08:13:15;8.70;99.90
19974;DHT22;10148;47.694;9.442;2022-12-24T08:15:42;8.70;99.90
19974;DHT22;10148;47.694;9.442;2022-12-24T08:18:08;8.70;99.90
19974;DHT22;10148;47.694;9.442;2022-12-24T08:20:36;8.70;99.90
19974;DHT22;10148;47.694;9.442;2022-12-24T08:23:01;8.70;99.90
19974;DHT22;10148;47.694;9.442;2022-12-24T08:25:26;8.70;99.90
19974;DHT22;10148;47.694;9.442;2022-12-24T08:27:52;8.70;99.90
19974;DHT22;10148;47.694;9.442;2022-12-24T08:30:17;8.60;99.90
19974;DHT22;10148;47.694;9.442;2022-12-24T08:32:43;8.60;99.90
19974;DHT22;10148;47.694;9.442;2022-12-24T08:35:09;8.70;99.90
19974;DHT22;10148;47.694;9.442;2022-12-24T08:37:34;8.60;99.90
19974;DHT22;10148;47.694;9.442;2022-12-24T08:40:00;8.70;99.90
19974;DHT22;10148;47.694;9.442;2022-12-24T08:42:25;8.60;99.90
19974;DHT22;10148;47.694;9.442;2022-12-24T08:44:51;8.60;99.90
19974;DHT22;10148;47.694;9.442;2022-12-24T08:47:16;8.60;99.90
19974;DHT22;10148;47.694;9.442;2022-12-24T08:49:42;8.60;99.90
19974;DHT22;10148;47.694;9.442;2022-12-24T08:52:07;8.60;99.90
19974;DHT22;10148;47.694;9.442;2022-12-24T08:54:33;8.60;99.90
19974;DHT22;10148;47.694;9.442;2022-12-24T08:56:58;8.60;99.90
19974;DHT22;10148;47.694;9.442;2022-12-24T08:59:24;8.60;99.90
19974;DHT22;10148;47.694;9.442;2022-12-24T09:01:49;8.60;99.90
19974;DHT22;10148;47.694;9.442;2022-12-24T09:04:15;8.60;99.90
19974;DHT22;10148;47.694;9.442;2022-12-24T09:06:40;8.60;99.90
19974;DHT22;10148;47.694;9.442;2022-12-24T09:09:06;8.60;99.90
19974;DHT22;10148;47.694;9.442;2022-12-24T09:11:33;8.60;99.90
19974;DHT22;10148;47.694;9.442;2022-12-24T09:13:59;8.60;99.90
19974;DHT22;10148;47.694;9.442;2022-12-24T09:16:24;8.50;99.90
19974;DHT22;10148;47.694;9.442;2022-12-24T09:18:50;8.60;99.90
19974;DHT22;10148;47.694;9.442;2022-12-24T09:21:15;8.60;99.90
19974;DHT22;10148;47.694;9.442;2022-12-24T09:23:44;8.60;99.90
19974;DHT22;10148;47.694;9.442;2022-12-24T09:26:16;8.60;99.90
19974;DHT22;10148;47.694;9.442;2022-12-24T09:28:41;8.60;99.90
19974;DHT22;10148;47.694;9.442;2022-12-24T09:31:09;8.60;99.90
19974;DHT22;10148;47.694;9.442;2022-12-24T09:33:37;8.70;99.90
19974;DHT22;10148;47.694;9.442;2022-12-24T09:36:03;8.70;99.90
19974;DHT22;10148;47.694;9.442;2022-12-24T09:38:29;8.70;99.90
19974;DHT22;10148;47.694;9.442;2022-12-24T09:40:55;8.70;99.90
19974;DHT22;10148;47.694;9.442;2022-12-24T09:43:26;8.60;99.90
19974;DHT22;10148;47.694;9.442;2022-12-24T09:46:08;8.60;99.90
19974;DHT22;10148;47.694;9.442;2022-12-24T09:48:42;8.50;99.90
19974;DHT22;10148;47.694;9.442;2022-12-24T09:51:38;8.50;99.90
19974;DHT22;10148;47.694;9.442;2022-12-24T09:54:19;8.50;99.90
19974;DHT22;10148;47.694;9.442;2022-12-24T09:56:47;8.50;99.90
19974;DHT22;10148;47.694;9.442;2022-12-24T09:59:20;8.50;99.90
19974;DHT22;10148;47.694;9.442;2022-12-24T10:01:49;8.50;99.90
19974;DHT22;10148;47.694;9.442;2022-12-24T10:04:18;8.50;99.90
19974;DHT22;10148;47.694;9.442;2022-12-24T10:07:01;8.60;99.90
19974;DHT22;10148;47.694;9.442;2022-12-24T10:09:47;8.60;99.90
19974;DHT22;10148;47.694;9.442;2022-12-24T10:12:27;8.60;99.90
19974;DHT22;10148;47.694;9.442;2022-12-24T10:26:01;8.70;99.90
19974;DHT22;10148;47.694;9.442;2022-12-24T10:28:59;8.70;99.90
19974;DHT22;10148;47.694;9.442;2022-12-24T10:31:35;8.70;99.90
19974;DHT22;10148;47.694;9.442;2022-12-24T10:34:21;8.70;99.90
19974;DHT22;10148;47.694;9.442;2022-12-24T10:36:47;8.80;99.90
19974;DHT22;10148;47.694;9.442;2022-12-24T10:39:19;8.80;99.90
19974;DHT22;10148;47.694;9.442;2022-12-24T10:41:53;8.80;99.90
19974;DHT22;10148;47.694;9.442;2022-12-24T10:44:23;8.90;99.90
19974;DHT22;10148;47.694;9.442;2022-12-24T10:46:50;8.90;99.90
19974;DHT22;10148;47.694;9.442;2022-12-24T10:49:19;8.90;99.90
19974;DHT22;10148;47.694;9.442;2022-12-24T10:51:52;8.90;99.90
19974;DHT22;10148;47.694;9.442;2022-12-24T10:54:21;8.90;99.90
19974;DHT22;10148;47.694;9.442;2022-12-24T10:56:55;8.90;99.90
19974;DHT22;10148;47.694;9.442;2022-12-24T10:59:30;8.90;99.90
19974;DHT22;10148;47.694;9.442;2022-12-24T11:01:59;8.80;99.90
19974;DHT22;10148;47.694;9.442;2022-12-24T11:04:28;8.80;99.90
19974;DHT22;10148;47.694;9.442;2022-12-24T11:07:17;8.80;99.90
19974;DHT22;10148;47.694;9.442;2022-12-24T11:10:04;8.80;99.90
19974;DHT22;10148;47.694;9.442;2022-12-24T11:12:48;8.80;99.90
19974;DHT22;10148;47.694;9.442;2022-12-24T11:15:30;8.80;99.90
19974;DHT22;10148;47.694;9.442;2022-12-24T11:18:03;8.80;99.90
19974;DHT22;10148;47.694;9.442;2022-12-24T11:20:32;8.80;99.90
19974;DHT22;10148;47.694;9.442;2022-12-24T11:22:59;8.80;99.90
19974;DHT22;10148;47.694;9.442;2022-12-24T11:25:28;8.80;99.90
19974;DHT22;10148;47.694;9.442;2022-12-24T11:27:57;8.80;99.90
19974;DHT22;10148;47.694;9.442;2022-12-24T11:30:34;8.80;99.90
19974;DHT22;10148;47.694;9.442;2022-12-24T11:35:28;8.80;99.90
19974;DHT22;10148;47.694;9.442;2022-12-24T11:40:36;8.80;99.90
19974;DHT22;10148;47.694;9.442;2022-12-24T11:43:04;8.90;99.90
19974;DHT22;10148;47.694;9.442;2022-12-24T11:45:31;8.90;99.90
19974;DHT22;10148;47.694;9.442;2022-12-24T11:47:58;8.90;99.90
19974;DHT22;10148;47.694;9.442;2022-12-24T11:50:34;8.90;99.90
19974;DHT22;10148;47.694;9.442;2022-12-24T11:53:10;8.90;99.90
19974;DHT22;10148;47.694;9.442;2022-12-24T11:55:43;8.90;99.90
19974;DHT22;10148;47.694;9.442;2022-12-24T11:58:36;8.90;99.90
19974;DHT22;10148;47.694;9.442;2022-12-24T12:03:45;9.00;99.90
19974;DHT22;10148;47.694;9.442;2022-12-24T12:06:36;9.00;99.90
19974;DHT22;10148;47.694;9.442;2022-12-24T12:09:06;9.00;99.90
19974;DHT22;10148;47.694;9.442;2022-12-24T12:11:38;9.00;99.90
19974;DHT22;10148;47.694;9.442;2022-12-24T12:14:05;9.00;99.90
19974;DHT22;10148;47.694;9.442;2022-12-24T12:19:44;9.10;99.90
19974;DHT22;10148;47.694;9.442;2022-12-24T12:22:37;9.10;99.90
19974;DHT22;10148;47.694;9.442;2022-12-24T12:25:18;9.20;99.90
19974;DHT22;10148;47.694;9.442;2022-12-24T12:27:50;9.20;99.90
19974;DHT22;10148;47.694;9.442;2022-12-24T12:30:19;9.20;99.90
19974;DHT22;10148;47.694;9.442;2022-12-24T12:35:40;9.30;99.90
19974;DHT22;10148;47.694;9.442;2022-12-24T12:38:11;9.30;99.90
19974;DHT22;10148;47.694;9.442;2022-12-24T12:46:46;9.40;99.90
19974;DHT22;10148;47.694;9.442;2022-12-24T12:57:11;9.50;99.90
19974;DHT22;10148;47.694;9.442;2022-12-24T12:59:43;9.50;99.90
19974;DHT22;10148;47.694;9.442;2022-12-24T13:07:50;9.50;99.90
19974;DHT22;10148;47.694;9.442;2022-12-24T13:10:46;9.40;99.90
19974;DHT22;10148;47.694;9.442;2022-12-24T13:13:48;9.40;99.90
19974;DHT22;10148;47.694;9.442;2022-12-24T13:16:40;9.40;99.90
19974;DHT22;10148;47.694;9.442;2022-12-24T13:19:36;9.40;99.90
19974;DHT22;10148;47.694;9.442;2022-12-24T13:22:03;9.30;99.90
19974;DHT22;10148;47.694;9.442;2022-12-24T13:24:30;9.30;99.90
19974;DHT22;10148;47.694;9.442;2022-12-24T13:37:49;9.40;99.90
19974;DHT22;10148;47.694;9.442;2022-12-24T13:40:16;9.40;99.90
19974;DHT22;10148;47.694;9.442;2022-12-24T13:50:47;9.30;99.90
19974;DHT22;10148;47.694;9.442;2022-12-24T13:55:57;9.30;99.90
19974;DHT22;10148;47.694;9.442;2022-12-24T13:58:24;9.30;99.90
19974;DHT22;10148;47.694;9.442;2022-12-24T14:00:55;9.20;99.90
19974;DHT22;10148;47.694;9.442;2022-12-24T14:03:34;9.20;99.90
19974;DHT22;10148;47.694;9.442;2022-12-24T14:06:05;9.20;99.90
19974;DHT22;10148;47.694;9.442;2022-12-24T14:08:38;9.20;99.90
19974;DHT22;10148;47.694;9.442;2022-12-24T14:16:04;9.20;99.90
19974;DHT22;10148;47.694;9.442;2022-12-24T14:18:36;9.10;99.90
19974;DHT22;10148;47.694;9.442;2022-12-24T14:21:03;9.10;99.90
19974;DHT22;10148;47.694;9.442;2022-12-24T14:26:26;9.10;99.90
19974;DHT22;10148;47.694;9.442;2022-12-24T14:28:56;9.10;99.90
19974;DHT22;10148;47.694;9.442;2022-12-24T14:31:23;9.10;99.90
19974;DHT22;10148;47.694;9.442;2022-12-24T14:33:49;9.10;99.90
19974;DHT22;10148;47.694;9.442;2022-12-24T14:36:20;9.20;99.90
19974;DHT22;10148;47.694;9.442;2022-12-24T14:38:47;9.10;99.90
19974;DHT22;10148;47.694;9.442;2022-12-24T14:41:34;9.20;99.90
19974;DHT22;10148;47.694;9.442;2022-12-24T14:46:47;9.10;99.90
19974;DHT22;10148;47.694;9.442;2022-12-24T14:49:42;9.10;99.90
19974;DHT22;10148;47.694;9.442;2022-12-24T14:52:35;9.10;99.90
19974;DHT22;10148;47.694;9.442;2022-12-24T14:55:26;9.10;99.90
19974;DHT22;10148;47.694;9.442;2022-12-24T15:00:42;9.00;99.90
19974;DHT22;10148;47.694;9.442;2022-12-24T15:03:15;9.00;99.90
19974;DHT22;10148;47.694;9.442;2022-12-24T15:05:42;9.00;99.90
19974;DHT22;10148;47.694;9.442;2022-12-24T15:08:13;9.00;99.90
19974;DHT22;10148;47.694;9.442;2022-12-24T15:10:45;9.00;99.90
19974;DHT22;10148;47.694;9.442;2022-12-24T15:15:46;9.00;99.90
19974;DHT22;10148;47.694;9.442;2022-12-24T15:18:15;8.90;99.90
19974;DHT22;10148;47.694;9.442;2022-12-24T15:20:45;8.90;99.90
19974;DHT22;10148;47.694;9.442;2022-12-24T15:23:43;8.90;99.90
19974;DHT22;10148;47.694;9.442;2022-12-24T15:28:44;8.90;99.90
19974;DHT22;10148;47.694;9.442;2022-12-24T15:31:14;8.90;99.90
19974;DHT22;10148;47.694;9.442;2022-12-24T15:33:43;8.90;99.90
19974;DHT22;10148;47.694;9.442;2022-12-24T15:36:10;8.80;99.90
19974;DHT22;10148;47.694;9.442;2022-12-24T15:38:39;8.80;99.90
19974;DHT22;10148;47.694;9.442;2022-12-24T15:41:19;8.80;99.90
19974;DHT22;10148;47.694;9.442;2022-12-24T15:43:46;8.80;99.90
19974;DHT22;10148;47.694;9.442;2022-12-24T15:46:21;8.80;99.90
19974;DHT22;10148;47.694;9.442;2022-12-24T15:48:48;8.80;99.90
19974;DHT22;10148;47.694;9.442;2022-12-24T15:51:25;8.70;99.90
19974;DHT22;10148;47.694;9.442;2022-12-24T15:53:59;8.70;99.90
19974;DHT22;10148;47.694;9.442;2022-12-24T15:56:42;8.60;99.90
19974;DHT22;10148;47.694;9.442;2022-12-24T16:01:41;8.60;99.90
19974;DHT22;10148;47.694;9.442;2022-12-24T16:04:16;8.60;99.90
19974;DHT22;10148;47.694;9.442;2022-12-24T16:09:31;8.60;99.90
19974;DHT22;10148;47.694;9.442;2022-12-24T16:11:57;8.50;99.90
19974;DHT22;10148;47.694;9.442;2022-12-24T16:14:23;8.50;99.90
19974;DHT22;10148;47.694;9.442;2022-12-24T16:16:50;8.50;99.90
19974;DHT22;10148;47.694;9.442;2022-12-24T16:19:22;8.50;99.90
19974;DHT22;10148;47.694;9.442;2022-12-24T16:21:54;8.50;99.90
19974;DHT22;10148;47.694;9.442;2022-12-24T16:24:25;8.50;99.90
19974;DHT22;10148;47.694;9.442;2022-12-24T16:26:51;8.50;99.90
19974;DHT22;10148;47.694;9.442;2022-12-24T16:29:17;8.40;99.90
19974;DHT22;10148;47.694;9.442;2022-12-24T16:31:57;8.40;99.90
19974;DHT22;10148;47.694;9.442;2022-12-24T16:34:25;8.40;99.90
19974;DHT22;10148;47.694;9.442;2022-12-24T16:36:51;8.40;99.90
19974;DHT22;10148;47.694;9.442;2022-12-24T16:39:25;8.30;99.90
19974;DHT22;10148;47.694;9.442;2022-12-24T16:41:56;8.30;99.90
19974;DHT22;10148;47.694;9.442;2022-12-24T16:44:41;8.30;99.90
19974;DHT22;10148;47.694;9.442;2022-12-24T16:47:10;8.40;99.90
19974;DHT22;10148;47.694;9.442;2022-12-24T16:49:37;8.30;99.90
19974;DHT22;10148;47.694;9.442;2022-12-24T16:52:04;8.30;99.90
19974;DHT22;10148;47.694;9.442;2022-12-24T16:54:29;8.30;99.90
19974;DHT22;10148;47.694;9.442;2022-12-24T16:56:55;8.30;99.90
19974;DHT22;10148;47.694;9.442;2022-12-24T16:59:22;8.30;99.90
19974;DHT22;10148;47.694;9.442;2022-12-24T17:01:49;8.30;99.90
19974;DHT22;10148;47.694;9.442;2022-12-24T17:04:16;8.30;99.90
19974;DHT22;10148;47.694;9.442;2022-12-24T17:06:43;8.20;99.90
19974;DHT22;10148;47.694;9.442;2022-12-24T17:09:10;8.20;99.90
19974;DHT22;10148;47.694;9.442;2022-12-24T17:11:36;8.20;99.90
19974;DHT22;10148;47.694;9.442;2022-12-24T17:14:03;8.20;99.90
19974;DHT22;10148;47.694;9.442;2022-12-24T17:16:29;8.20;99.90
19974;DHT22;10148;47.694;9.442;2022-12-24T17:18:54;8.20;99.90
19974;DHT22;10148;47.694;9.442;2022-12-24T17:21:20;8.10;99.90
19974;DHT22;10148;47.694;9.442;2022-12-24T17:23:46;8.10;99.90
19974;DHT22;10148;47.694;9.442;2022-12-24T17:26:12;8.20;99.90
19974;DHT22;10148;47.694;9.442;2022-12-24T17:28:38;8.10;99.90
19974;DHT22;10148;47.694;9.442;2022-12-24T17:31:11;8.10;99.90
19974;DHT22;10148;47.694;9.442;2022-12-24T17:33:37;8.00;99.90
19974;DHT22;10148;47.694;9.442;2022-12-24T17:36:03;8.00;99.90
19974;DHT22;10148;47.694;9.442;2022-12-24T17:38:28;8.00;99.90
19974;DHT22;10148;47.694;9.442;2022-12-24T17:41:10;8.00;99.90